Dades meteomassalio
Diari Summary for Octubre 7, 2017 Units:  Metric    English   Both
« Previous Day
Next Day »
Diari Semanal Mensual Anual Personalitzat
  Maxima: Minima: Mijana:
Temperatura: 22.8 °C 4.4 °C 14 °C
Rosada: 12.0 °C -0.1 °C 5.5 °C
Humitat: 81 % 36 % 59 %
Velocitat del vent: 25.9 km/h 0.0 km/h 6.5 km/h
Racha vent: 25.9 km/h - -
Vent:- - South
Pressio: 1026.6 hPa 1022.6 hPa -
Pluja: 0.0 mm    
Historical Graphs
 
 
Tabular Data for Octubre 7, 2017
Time Temperature Dew Point Pressure Wind Wind Speed Wind Gust Humidity Rainfall Rate (Hourly) solar Conditions
00:04 15.6 °C 7.3 °C 1023.2 hPa SSW 20.4 km/h 20.4 km/h 58 % 0.0 mm 0.0 W/m2 CLR
00:08 15.6 °C 7.3 °C 1023.6 hPa SSW 19.3 km/h 19.3 km/h 58 % 0.0 mm 0.0 W/m2 CLR
00:14 15.6 °C 7.1 °C 1023.6 hPa South 18.5 km/h 18.5 km/h 57 % 0.0 mm 0.0 W/m2 CLR
00:19 15.6 °C 7.1 °C 1023.6 hPa SSW 22.2 km/h 22.2 km/h 57 % 0.0 mm 0.0 W/m2 CLR
00:24 15.6 °C 7.3 °C 1023.6 hPa South 18.5 km/h 18.5 km/h 58 % 0.0 mm 0.0 W/m2 CLR
00:29 15.6 °C 7.3 °C 1023.6 hPa South 13.0 km/h 13.0 km/h 58 % 0.0 mm 0.0 W/m2 CLR
00:34 15.6 °C 7.6 °C 1023.6 hPa South 18.5 km/h 18.5 km/h 59 % 0.0 mm 0.0 W/m2 CLR
00:39 15.0 °C 7.1 °C 1023.6 hPa South 7.4 km/h 7.4 km/h 59 % 0.0 mm 0.0 W/m2 CLR
00:44 15.0 °C 7.3 °C 1023.6 hPa South 14.8 km/h 14.8 km/h 60 % 0.0 mm 0.0 W/m2 CLR
00:49 15.0 °C 7.3 °C 1023.6 hPa South 14.8 km/h 14.8 km/h 60 % 0.0 mm 0.0 W/m2 CLR
00:54 15.0 °C 7.3 °C 1023.6 hPa South 11.1 km/h 11.1 km/h 60 % 0.0 mm 0.0 W/m2 CLR
00:59 14.4 °C 6.8 °C 1023.9 hPa South 11.3 km/h 11.3 km/h 60 % 0.0 mm 0.0 W/m2 CLR
01:04 14.4 °C 6.8 °C 1023.9 hPa South 14.8 km/h 14.8 km/h 60 % 0.0 mm 0.0 W/m2 CLR
01:09 14.4 °C 6.5 °C 1023.9 hPa South 13.0 km/h 13.0 km/h 59 % 0.0 mm 0.0 W/m2 CLR
01:14 14.4 °C 6.5 °C 1023.9 hPa SSW 14.8 km/h 14.8 km/h 59 % 0.0 mm 0.0 W/m2 CLR
01:19 14.4 °C 6.5 °C 1023.9 hPa SSE 9.3 km/h 9.3 km/h 59 % 0.0 mm 0.0 W/m2 CLR
01:24 14.4 °C 6.5 °C 1024.3 hPa South 6.4 km/h 6.4 km/h 59 % 0.0 mm 0.0 W/m2 CLR
01:29 14.4 °C 6.5 °C 1024.3 hPa SSE 7.4 km/h 7.4 km/h 59 % 0.0 mm 0.0 W/m2 CLR
01:39 13.9 °C 6.2 °C 1023.9 hPa South 18.5 km/h 18.5 km/h 60 % 0.0 mm 0.0 W/m2 CLR
01:44 13.9 °C 6.0 °C 1023.9 hPa SSW 20.4 km/h 20.4 km/h 59 % 0.0 mm 0.0 W/m2 CLR
01:49 13.9 °C 6.0 °C 1023.9 hPa South 16.7 km/h 16.7 km/h 59 % 0.0 mm 0.0 W/m2 CLR
01:54 13.3 °C 5.5 °C 1023.9 hPa South 25.9 km/h 25.9 km/h 59 % 0.0 mm 0.0 W/m2 CLR
01:59 13.9 °C 6.0 °C 1023.9 hPa SSW 18.5 km/h 18.5 km/h 59 % 0.0 mm 0.0 W/m2 CLR
02:04 13.9 °C 6.0 °C 1024.3 hPa SSW 18.5 km/h 18.5 km/h 59 % 0.0 mm 0.0 W/m2 CLR
02:09 13.9 °C 6.0 °C 1024.3 hPa SSW 17.7 km/h 17.7 km/h 59 % 0.0 mm 0.0 W/m2 CLR
02:14 13.9 °C 6.0 °C 1024.3 hPa South 16.7 km/h 16.7 km/h 59 % 0.0 mm 0.0 W/m2 CLR
02:19 13.3 °C 5.2 °C 1024.3 hPa South 13.0 km/h 13.0 km/h 58 % 0.0 mm 0.0 W/m2 CLR
02:24 13.3 °C 5.2 °C 1024.3 hPa South 18.5 km/h 18.5 km/h 58 % 0.0 mm 0.0 W/m2 CLR
02:29 13.3 °C 5.2 °C 1024.3 hPa South 9.7 km/h 9.7 km/h 58 % 0.0 mm 0.0 W/m2 CLR
02:34 13.3 °C 5.2 °C 1024.3 hPa South 11.1 km/h 11.1 km/h 58 % 0.0 mm 0.0 W/m2 CLR
02:39 13.3 °C 5.5 °C 1024.3 hPa South 5.6 km/h 5.6 km/h 59 % 0.0 mm 0.0 W/m2 CLR
02:44 12.8 °C 4.9 °C 1024.3 hPa SSE 16.7 km/h 16.7 km/h 59 % 0.0 mm 0.0 W/m2 CLR
02:49 12.8 °C 4.9 °C 1024.3 hPa SSW 6.4 km/h 6.4 km/h 59 % 0.0 mm 0.0 W/m2 CLR
02:54 12.2 °C 4.4 °C 1024.6 hPa SW 14.8 km/h 14.8 km/h 59 % 0.0 mm 0.0 W/m2 CLR
02:59 12.2 °C 4.4 °C 1024.3 hPa South 5.6 km/h 5.6 km/h 59 % 0.0 mm 0.0 W/m2 CLR
03:04 11.7 °C 3.9 °C 1024.3 hPa South 9.3 km/h 9.3 km/h 59 % 0.0 mm 0.0 W/m2 CLR
03:09 11.7 °C 3.9 °C 1024.3 hPa SSE 9.7 km/h 9.7 km/h 59 % 0.0 mm 0.0 W/m2 CLR
03:14 11.1 °C 3.6 °C 1024.3 hPa Calm     60 % 0.0 mm 0.0 W/m2 CLR
03:19 11.1 °C 3.9 °C 1024.3 hPa SSE 5.6 km/h   61 % 0.0 mm 0.0 W/m2 CLR
03:24 10.6 °C 3.3 °C 1024.3 hPa Calm     61 % 0.0 mm 0.0 W/m2 CLR
03:29 10.0 °C 2.8 °C 1024.3 hPa Calm     61 % 0.0 mm 0.0 W/m2 CLR
03:34 9.4 °C 2.3 °C 1024.3 hPa Calm     61 % 0.0 mm 0.0 W/m2 CLR
03:39 9.4 °C 2.3 °C 1024.3 hPa South 6.4 km/h 6.4 km/h 61 % 0.0 mm 0.0 W/m2 CLR
03:44 9.4 °C 2.3 °C 1024.3 hPa South 5.6 km/h   61 % 0.0 mm 0.0 W/m2 CLR
03:49 8.9 °C 1.8 °C 1024.3 hPa South 5.6 km/h 5.6 km/h 61 % 0.0 mm 0.0 W/m2 CLR
03:55 8.9 °C 1.8 °C 1024.3 hPa Calm     61 % 0.0 mm 0.0 W/m2 CLR
04:00 8.3 °C 1.2 °C 1024.3 hPa Calm     61 % 0.0 mm 0.0 W/m2 CLR
04:05 8.3 °C 1.2 °C 1024.3 hPa Calm     61 % 0.0 mm 0.0 W/m2 CLR
04:10 8.3 °C 1.2 °C 1024.3 hPa Calm     61 % 0.0 mm 0.0 W/m2 CLR
04:15 7.8 °C 0.9 °C 1024.3 hPa SSE 3.7 km/h   62 % 0.0 mm 0.0 W/m2 CLR
04:20 7.8 °C 1.2 °C 1024.3 hPa Calm     63 % 0.0 mm 0.0 W/m2 CLR
04:25 7.8 °C 1.2 °C 1024.3 hPa Calm     63 % 0.0 mm 0.0 W/m2 CLR
04:30 7.8 °C 1.2 °C 1024.3 hPa Calm     63 % 0.0 mm 0.0 W/m2 CLR
04:35 7.2 °C 0.8 °C 1024.3 hPa Calm     64 % 0.0 mm 0.0 W/m2 CLR
04:40 7.2 °C 1.1 °C 1024.3 hPa Calm     65 % 0.0 mm 0.0 W/m2 CLR
04:45 7.2 °C 1.3 °C 1024.3 hPa Calm     66 % 0.0 mm 0.0 W/m2 CLR
04:50 7.2 °C 1.5 °C 1024.3 hPa Calm     67 % 0.0 mm 0.0 W/m2 CLR
04:55 6.7 °C 0.9 °C 1024.3 hPa Calm     67 % 0.0 mm 0.0 W/m2 CLR
05:00 6.7 °C 1.2 °C 1024.3 hPa Calm     68 % 0.0 mm 0.0 W/m2 CLR
05:05 6.7 °C 1.2 °C 1024.3 hPa Calm     68 % 0.0 mm 0.0 W/m2 CLR
05:10 6.7 °C 1.4 °C 1024.3 hPa Calm     69 % 0.0 mm 0.0 W/m2 CLR
05:15 6.7 °C 1.4 °C 1024.3 hPa Calm     69 % 0.0 mm 0.0 W/m2 CLR
05:20 6.7 °C 1.4 °C 1024.6 hPa Calm     69 % 0.0 mm 0.0 W/m2 CLR
05:25 6.7 °C 1.6 °C 1024.6 hPa Calm     70 % 0.0 mm 0.0 W/m2 CLR
05:30 6.1 °C 1.2 °C 1024.6 hPa Calm     71 % 0.0 mm 0.0 W/m2 CLR
05:35 6.1 °C 1.2 °C 1024.6 hPa Calm     71 % 0.0 mm 0.0 W/m2 CLR
05:45 6.1 °C 1.2 °C 1024.9 hPa Calm     71 % 0.0 mm 0.0 W/m2 CLR
05:50 6.1 °C 1.4 °C 1024.9 hPa Calm     72 % 0.0 mm 0.0 W/m2 CLR
05:55 6.1 °C 1.2 °C 1024.9 hPa Calm     71 % 0.0 mm 0.0 W/m2 CLR
06:00 5.6 °C 0.7 °C 1024.9 hPa South 7.4 km/h 7.4 km/h 71 % 0.0 mm 0.0 W/m2 CLR
06:05 5.6 °C 0.7 °C 1024.9 hPa South 9.3 km/h 9.3 km/h 71 % 0.0 mm 0.0 W/m2 CLR
06:10 5.6 °C 0.9 °C 1024.9 hPa South 5.6 km/h 5.6 km/h 72 % 0.0 mm 0.0 W/m2 CLR
06:15 5.6 °C 0.9 °C 1024.9 hPa Calm     72 % 0.0 mm 0.0 W/m2 CLR
06:20 5.6 °C 0.9 °C 1024.9 hPa South 1.6 km/h 1.9 km/h 72 % 0.0 mm 0.0 W/m2 CLR
06:25 5.6 °C 0.9 °C 1024.9 hPa SSE 3.7 km/h 3.7 km/h 72 % 0.0 mm 0.0 W/m2 CLR
06:30 5.6 °C 1.1 °C 1024.9 hPa SSE 8.0 km/h 8.0 km/h 73 % 0.0 mm 0.0 W/m2 CLR
06:35 5.6 °C 1.1 °C 1025.3 hPa SSE 8.0 km/h 8.0 km/h 73 % 0.0 mm 0.0 W/m2 CLR
06:40 5.6 °C 1.3 °C 1025.3 hPa SSE 7.4 km/h 7.4 km/h 74 % 0.0 mm 0.0 W/m2 CLR
06:45 5.0 °C 0.7 °C 1025.3 hPa SSE 9.7 km/h 9.7 km/h 74 % 0.0 mm 0.0 W/m2 CLR
06:50 5.0 °C 0.7 °C 1025.3 hPa SSE 5.6 km/h 5.6 km/h 74 % 0.0 mm 0.0 W/m2 CLR
06:55 5.0 °C 0.7 °C 1025.3 hPa SSE 5.6 km/h 5.6 km/h 74 % 0.0 mm 0.0 W/m2 CLR
07:00 5.0 °C 0.7 °C 1025.3 hPa SSE 5.6 km/h   74 % 0.0 mm 0.0 W/m2 CLR
07:05 5.0 °C 0.7 °C 1025.3 hPa SSE 4.8 km/h 4.8 km/h 74 % 0.0 mm 0.0 W/m2 CLR
07:10 5.0 °C 0.7 °C 1025.6 hPa SSE 5.6 km/h 5.6 km/h 74 % 0.0 mm 0.0 W/m2 CLR
07:15 5.0 °C 0.9 °C 1025.6 hPa South 9.3 km/h 9.3 km/h 75 % 0.0 mm 0.0 W/m2 CLR
07:20 5.0 °C 0.9 °C 1025.6 hPa South 7.4 km/h 7.4 km/h 75 % 0.0 mm 0.0 W/m2 CLR
07:25 5.0 °C 0.9 °C 1026.0 hPa Calm     75 % 0.0 mm 0.0 W/m2 CLR
07:30 5.0 °C 0.9 °C 1026.0 hPa Calm     75 % 0.0 mm 0.0 W/m2 CLR
07:35 5.0 °C 0.9 °C 1026.0 hPa Calm     75 % 0.0 mm 0.0 W/m2 CLR
07:37 5.0 °C 0.9 °C 1026.0 hPa Calm     75 % 0.0 mm 0.0 W/m2 CLR
07:42 5.0 °C 0.9 °C 1026.0 hPa SE 5.6 km/h 5.6 km/h 75 % 0.0 mm 0.0 W/m2 CLR
07:47 5.0 °C 0.9 °C 1026.0 hPa SE 7.4 km/h 7.4 km/h 75 % 0.0 mm 0.0 W/m2 CLR
07:52 4.4 °C 0.4 °C 1026.0 hPa SSE 9.3 km/h 9.3 km/h 75 % 0.0 mm 0.0 W/m2 CLR
07:57 4.4 °C 0.4 °C 1026.0 hPa South 9.3 km/h 9.3 km/h 75 % 0.0 mm 0.0 W/m2 CLR
08:02 4.4 °C 0.4 °C 1026.0 hPa South 7.4 km/h 7.4 km/h 75 % 0.0 mm 5.0 W/m2 OVC
08:07 4.4 °C 0.4 °C 1026.0 hPa South 7.4 km/h 7.4 km/h 75 % 0.0 mm 7.0 W/m2 BKN
08:12 4.4 °C 0.2 °C 1026.0 hPa South 5.6 km/h 5.6 km/h 74 % 0.0 mm 9.0 W/m2 BKN
08:13 4.4 °C 0.2 °C 1026.0 hPa South 5.6 km/h 5.6 km/h 74 % 0.0 mm 9.0 W/m2 BKN
08:18 4.4 °C 0.2 °C 1026.0 hPa South 6.4 km/h 6.4 km/h 74 % 0.0 mm 12.0 W/m2 BKN
08:23 4.4 °C 0.2 °C 1026.0 hPa South 8.0 km/h 8.0 km/h 74 % 0.0 mm 14.0 W/m2 BKN
08:28 4.4 °C 0.2 °C 1026.0 hPa SSE 9.3 km/h 9.3 km/h 74 % 0.0 mm 18.0 W/m2 BKN
08:33 5.0 °C 0.6 °C 1026.0 hPa SSE 7.4 km/h 7.4 km/h 73 % 0.0 mm 25.0 W/m2 BKN
08:38 5.0 °C 0.6 °C 1026.3 hPa SSE 5.6 km/h 5.6 km/h 73 % 0.0 mm 33.0 W/m2 BKN
08:43 5.0 °C 0.6 °C 1026.3 hPa Calm     73 % 0.0 mm 44.0 W/m2 BKN
08:48 5.0 °C 0.2 °C 1026.6 hPa Calm     71 % 0.0 mm 58.0 W/m2 SCT
08:53 5.0 °C 0.0 °C 1026.6 hPa Calm     70 % 0.0 mm 69.0 W/m2 FEW
08:58 5.6 °C 0.3 °C 1026.3 hPa Calm     69 % 0.0 mm 86.0 W/m2 CLR
09:03 5.6 °C -0.1 °C 1026.6 hPa Calm     67 % 0.0 mm 84.0 W/m2 FEW
09:08 6.1 °C 0.2 °C 1026.6 hPa Calm     66 % 0.0 mm 118.0 W/m2 CLR
09:13 6.7 °C 0.3 °C 1026.3 hPa Calm     64 % 0.0 mm 109.0 W/m2 CLR
09:18 7.2 °C 0.7 °C 1026.3 hPa Calm     63 % 0.0 mm 93.0 W/m2 CLR
09:23 8.3 °C 1.2 °C 1026.6 hPa Calm     61 % 0.0 mm 116.0 W/m2 CLR
09:28 9.4 °C 2.3 °C 1026.6 hPa Calm     61 % 0.0 mm 192.0 W/m2 CLR
09:33 10.0 °C 2.6 °C 1026.6 hPa Calm     60 % 0.0 mm 209.0 W/m2 CLR
09:38 10.6 °C 3.3 °C 1026.6 hPa Calm     61 % 0.0 mm 232.0 W/m2 CLR
09:43 10.6 °C 2.9 °C 1026.6 hPa Calm     59 % 0.0 mm 246.0 W/m2 CLR
09:48 11.1 °C 2.9 °C 1026.6 hPa Calm     57 % 0.0 mm 260.0 W/m2 CLR
09:53 12.2 °C 3.4 °C 1026.6 hPa Calm     55 % 0.0 mm 274.0 W/m2 CLR
09:58 12.2 °C 3.2 °C 1026.6 hPa Calm     54 % 0.0 mm 288.0 W/m2 CLR
10:03 12.8 °C 3.7 °C 1026.6 hPa Calm     54 % 0.0 mm 306.0 W/m2 CLR
10:08 13.3 °C 3.1 °C 1026.6 hPa South 14.8 km/h 14.8 km/h 50 % 0.0 mm 320.0 W/m2 CLR
10:13 13.9 °C 3.3 °C 1026.6 hPa SSW 14.5 km/h 14.5 km/h 49 % 0.0 mm 334.0 W/m2 CLR
10:18 13.9 °C 3.1 °C 1026.3 hPa South 13.0 km/h 13.0 km/h 48 % 0.0 mm 346.0 W/m2 CLR
10:23 14.4 °C 3.3 °C 1026.3 hPa South 13.0 km/h 13.0 km/h 47 % 0.0 mm 364.0 W/m2 CLR
10:28 14.4 °C 3.6 °C 1026.6 hPa SSW 14.5 km/h 14.5 km/h 48 % 0.0 mm 376.0 W/m2 CLR
10:33 15.0 °C 3.8 °C 1026.3 hPa SSE 13.0 km/h 13.0 km/h 47 % 0.0 mm 390.0 W/m2 CLR
10:38 15.0 °C 4.1 °C 1026.3 hPa SSE 13.0 km/h 13.0 km/h 48 % 0.0 mm 401.0 W/m2 CLR
10:44 15.0 °C 3.8 °C 1026.3 hPa South 16.7 km/h 16.7 km/h 47 % 0.0 mm 415.0 W/m2 CLR
10:49 15.0 °C 3.8 °C 1026.3 hPa SSW 14.8 km/h 14.8 km/h 47 % 0.0 mm 427.0 W/m2 CLR
10:54 15.6 °C 3.9 °C 1026.3 hPa South 13.0 km/h 13.0 km/h 46 % 0.0 mm 445.0 W/m2 CLR
10:59 15.6 °C 3.9 °C 1026.6 hPa South 18.5 km/h 18.5 km/h 46 % 0.0 mm 457.0 W/m2 CLR
11:04 15.6 °C 3.9 °C 1026.3 hPa South 9.7 km/h 9.7 km/h 46 % 0.0 mm 466.0 W/m2 CLR
11:09 15.6 °C 3.9 °C 1026.3 hPa SW 11.1 km/h 11.1 km/h 46 % 0.0 mm 478.0 W/m2 CLR
11:14 16.1 °C 4.8 °C 1026.3 hPa SW 16.7 km/h 16.7 km/h 47 % 0.0 mm 490.0 W/m2 CLR
11:19 16.1 °C 4.5 °C 1026.3 hPa SSE 14.8 km/h 14.8 km/h 46 % 0.0 mm 503.0 W/m2 CLR
11:24 16.1 °C 4.2 °C 1026.3 hPa South 18.5 km/h 18.5 km/h 45 % 0.0 mm 513.0 W/m2 CLR
11:29 16.1 °C 4.5 °C 1026.3 hPa South 13.0 km/h 13.0 km/h 46 % 0.0 mm 524.0 W/m2 CLR
11:34 16.7 °C 5.0 °C 1026.3 hPa SW 14.8 km/h 14.8 km/h 46 % 0.0 mm 538.0 W/m2 CLR
11:39 16.7 °C 4.7 °C 1026.3 hPa SW 13.0 km/h 13.0 km/h 45 % 0.0 mm 545.0 W/m2 CLR
11:44 17.2 °C 5.2 °C 1026.3 hPa SW 9.3 km/h 9.3 km/h 45 % 0.0 mm 554.0 W/m2 CLR
11:49 17.2 °C 5.5 °C 1026.3 hPa SW 13.0 km/h 13.0 km/h 46 % 0.0 mm 563.0 W/m2 CLR
11:54 17.2 °C 5.2 °C 1026.3 hPa SSW 14.8 km/h 14.8 km/h 45 % 0.0 mm 573.0 W/m2 CLR
11:59 17.8 °C 5.3 °C 1026.3 hPa Calm     44 % 0.0 mm 582.0 W/m2 CLR
12:04 17.8 °C 5.7 °C 1026.3 hPa SW 7.4 km/h 7.4 km/h 45 % 0.0 mm 592.0 W/m2 CLR
12:09 18.3 °C 6.2 °C 1026.3 hPa West 14.5 km/h 14.5 km/h 45 % 0.0 mm 599.0 W/m2 CLR
12:14 18.3 °C 6.5 °C 1026.3 hPa WSW 8.0 km/h 8.0 km/h 46 % 0.0 mm 606.0 W/m2 CLR
12:19 18.3 °C 6.2 °C 1026.3 hPa WSW 7.4 km/h 7.4 km/h 45 % 0.0 mm 619.0 W/m2 CLR
12:24 18.3 °C 6.2 °C 1026.0 hPa WSW 5.6 km/h 5.6 km/h 45 % 0.0 mm 626.0 W/m2 CLR
12:29 18.9 °C 6.4 °C 1026.0 hPa SSE 7.4 km/h 7.4 km/h 44 % 0.0 mm 631.0 W/m2 CLR
12:34 18.9 °C 6.4 °C 1026.0 hPa Calm     44 % 0.0 mm 636.0 W/m2 CLR
12:39 18.9 °C 6.4 °C 1026.0 hPa WSW 11.3 km/h 11.3 km/h 44 % 0.0 mm 642.0 W/m2 CLR
12:44 19.4 °C 6.6 °C 1026.0 hPa West 5.6 km/h 5.6 km/h 43 % 0.0 mm 649.0 W/m2 CLR
12:49 18.9 °C 6.1 °C 1026.0 hPa Calm     43 % 0.0 mm 652.0 W/m2 CLR
12:54 18.9 °C 5.7 °C 1026.0 hPa Calm     42 % 0.0 mm 659.0 W/m2 CLR
12:59 19.4 °C 6.2 °C 1025.6 hPa Calm     42 % 0.0 mm 661.0 W/m2 CLR
13:04 18.9 °C 5.7 °C 1025.6 hPa ESE 5.6 km/h 5.6 km/h 42 % 0.0 mm 666.0 W/m2 CLR
13:14 20.0 °C 6.3 °C 1025.6 hPa SW 9.7 km/h 9.7 km/h 41 % 0.0 mm 673.0 W/m2 CLR
13:24 19.4 °C 5.8 °C 1025.6 hPa West 5.6 km/h 5.6 km/h 41 % 0.0 mm 679.0 W/m2 CLR
13:29 19.4 °C 5.8 °C 1025.3 hPa West 3.7 km/h 3.7 km/h 41 % 0.0 mm 682.0 W/m2 CLR
13:34 20.0 °C 6.3 °C 1025.3 hPa Calm   1.1 km/h 41 % 0.0 mm 682.0 W/m2 CLR
13:39 19.4 °C 5.5 °C 1025.3 hPa NNW 3.7 km/h 3.7 km/h 40 % 0.0 mm 686.0 W/m2 CLR
13:44 19.4 °C 5.5 °C 1024.9 hPa Calm     40 % 0.0 mm 687.0 W/m2 CLR
13:49 20.0 °C 5.6 °C 1024.9 hPa Calm   2.6 km/h 39 % 0.0 mm 686.0 W/m2 CLR
13:55 20.0 °C 5.6 °C 1024.9 hPa North 5.6 km/h   39 % 0.0 mm 687.0 W/m2 CLR
14:00 20.0 °C 5.6 °C 1024.9 hPa North 5.6 km/h 5.6 km/h 39 % 0.0 mm 686.0 W/m2 CLR
14:05 20.0 °C 5.6 °C 1024.9 hPa Calm     39 % 0.0 mm 686.0 W/m2 CLR
14:10 21.1 °C 6.6 °C 1024.9 hPa NNW 5.6 km/h   39 % 0.0 mm 684.0 W/m2 CLR
14:15 21.1 °C 6.2 °C 1024.6 hPa Calm     38 % 0.0 mm 680.0 W/m2 CLR
14:20 21.7 °C 6.7 °C 1024.6 hPa ESE 5.6 km/h   38 % 0.0 mm 680.0 W/m2 CLR
14:25 21.7 °C 6.7 °C 1024.6 hPa Calm     38 % 0.0 mm 679.0 W/m2 CLR
14:30 21.1 °C 6.6 °C 1024.3 hPa Calm     39 % 0.0 mm 673.0 W/m2 CLR
14:35 21.7 °C 6.3 °C 1024.3 hPa Calm     37 % 0.0 mm 670.0 W/m2 CLR
14:40 21.7 °C 6.3 °C 1024.3 hPa Calm     37 % 0.0 mm 668.0 W/m2 CLR
14:45 21.7 °C 6.3 °C 1024.3 hPa NNW 5.6 km/h 5.6 km/h 37 % 0.0 mm 663.0 W/m2 CLR
14:50 21.7 °C 6.3 °C 1024.3 hPa WNW 1.9 km/h   37 % 0.0 mm 657.0 W/m2 CLR
14:55 21.7 °C 6.3 °C 1024.3 hPa WNW 5.6 km/h 5.6 km/h 37 % 0.0 mm 650.0 W/m2 CLR
15:00 21.7 °C 6.3 °C 1023.9 hPa Calm   0.8 km/h 37 % 0.0 mm 643.0 W/m2 CLR
15:05 21.7 °C 6.3 °C 1023.9 hPa NNW 17.7 km/h 17.7 km/h 37 % 0.0 mm 640.0 W/m2 CLR
15:10 21.7 °C 6.3 °C 1023.9 hPa North 7.4 km/h 7.4 km/h 37 % 0.0 mm 633.0 W/m2 CLR
15:15 21.7 °C 6.7 °C 1023.9 hPa North 5.6 km/h 5.6 km/h 38 % 0.0 mm 624.0 W/m2 CLR
15:20 21.7 °C 6.3 °C 1023.9 hPa NW 9.7 km/h 9.7 km/h 37 % 0.0 mm 619.0 W/m2 CLR
15:30 22.2 °C 6.4 °C 1023.9 hPa NNW 1.9 km/h   36 % 0.0 mm 603.0 W/m2 CLR
15:35 21.7 °C 5.9 °C 1023.6 hPa WNW 5.6 km/h   36 % 0.0 mm 594.0 W/m2 CLR
15:40 22.2 °C 6.4 °C 1023.6 hPa NW 4.8 km/h 4.8 km/h 36 % 0.0 mm 585.0 W/m2 CLR
15:45 22.2 °C 6.8 °C 1023.6 hPa NNW 9.7 km/h 9.7 km/h 37 % 0.0 mm 578.0 W/m2 CLR
15:50 22.2 °C 6.4 °C 1023.6 hPa WNW 11.1 km/h 11.1 km/h 36 % 0.0 mm 568.0 W/m2 CLR
15:55 22.2 °C 6.8 °C 1023.6 hPa NW 7.4 km/h 8.5 km/h 37 % 0.0 mm 557.0 W/m2 CLR
16:00 22.2 °C 6.4 °C 1023.2 hPa NW 1.9 km/h   36 % 0.0 mm 547.0 W/m2 CLR
16:10 22.2 °C 6.8 °C 1023.2 hPa WNW 5.6 km/h 5.6 km/h 37 % 0.0 mm 527.0 W/m2 CLR
16:15 22.2 °C 6.8 °C 1023.2 hPa NW 9.7 km/h 9.7 km/h 37 % 0.0 mm 517.0 W/m2 CLR
16:20 22.2 °C 6.4 °C 1023.2 hPa NW 14.8 km/h 14.8 km/h 36 % 0.0 mm 504.0 W/m2 CLR
16:35 22.2 °C 6.8 °C 1022.9 hPa NW 14.5 km/h 14.5 km/h 37 % 0.0 mm 469.0 W/m2 CLR
16:40 22.2 °C 7.2 °C 1022.9 hPa WNW 7.4 km/h 7.4 km/h 38 % 0.0 mm 457.0 W/m2 CLR
16:45 22.8 °C 8.1 °C 1022.9 hPa Calm     39 % 0.0 mm 441.0 W/m2 CLR
16:50 22.8 °C 7.7 °C 1022.9 hPa NW 14.8 km/h 14.8 km/h 38 % 0.0 mm 431.0 W/m2 CLR
16:55 22.8 °C 7.7 °C 1022.9 hPa NW 16.7 km/h 16.7 km/h 38 % 0.0 mm 417.0 W/m2 CLR
16:56 22.8 °C 7.7 °C 1022.9 hPa NW 18.5 km/h 18.5 km/h 38 % 0.0 mm 413.0 W/m2 CLR
17:06 22.2 °C 9.4 °C 1022.6 hPa North 13.0 km/h 13.0 km/h 44 % 0.0 mm 383.0 W/m2 CLR
17:11 22.2 °C 10.7 °C 1022.9 hPa NE 13.0 km/h 13.0 km/h 48 % 0.0 mm 369.0 W/m2 CLR
17:16 22.2 °C 11.3 °C 1022.9 hPa NNW 13.0 km/h 13.0 km/h 50 % 0.0 mm 352.0 W/m2 CLR
17:21 22.2 °C 11.3 °C 1022.9 hPa NNW 13.0 km/h 13.0 km/h 50 % 0.0 mm 338.0 W/m2 CLR
17:26 22.2 °C 11.3 °C 1022.9 hPa NNE 7.4 km/h 7.4 km/h 50 % 0.0 mm 323.0 W/m2 CLR
17:31 22.2 °C 11.6 °C 1022.9 hPa NNE 7.4 km/h 7.4 km/h 51 % 0.0 mm 304.0 W/m2 CLR
17:36 22.2 °C 11.6 °C 1022.6 hPa Calm     51 % 0.0 mm 292.0 W/m2 CLR
17:41 22.2 °C 11.6 °C 1022.6 hPa North 9.3 km/h 9.3 km/h 51 % 0.0 mm 276.0 W/m2 CLR
17:46 22.2 °C 11.6 °C 1022.6 hPa NNE 5.6 km/h 5.6 km/h 51 % 0.0 mm 262.0 W/m2 CLR
17:51 21.7 °C 11.4 °C 1022.6 hPa ENE 9.3 km/h 9.3 km/h 52 % 0.0 mm 244.0 W/m2 CLR
17:56 21.7 °C 11.4 °C 1022.6 hPa NE 14.5 km/h 14.5 km/h 52 % 0.0 mm 227.0 W/m2 CLR
18:01 21.7 °C 11.7 °C 1022.6 hPa NE 9.3 km/h 9.3 km/h 53 % 0.0 mm 209.0 W/m2 CLR
18:06 21.1 °C 11.7 °C 1022.6 hPa NE 6.4 km/h 6.4 km/h 55 % 0.0 mm 193.0 W/m2 CLR
18:11 21.1 °C 11.7 °C 1022.6 hPa North 7.4 km/h 7.4 km/h 55 % 0.0 mm 172.0 W/m2 CLR
18:16 21.1 °C 11.7 °C 1022.6 hPa North 5.6 km/h 5.6 km/h 55 % 0.0 mm 155.0 W/m2 CLR
18:21 21.1 °C 12.0 °C 1022.6 hPa NNE 16.7 km/h 16.7 km/h 56 % 0.0 mm 139.0 W/m2 CLR
18:26 20.6 °C 11.4 °C 1022.6 hPa NNE 9.3 km/h 9.3 km/h 56 % 0.0 mm 123.0 W/m2 CLR
18:31 20.6 °C 11.7 °C 1022.6 hPa NNE 8.0 km/h 8.0 km/h 57 % 0.0 mm 109.0 W/m2 CLR
18:36 20.6 °C 11.7 °C 1022.9 hPa NE 6.4 km/h 6.4 km/h 57 % 0.0 mm 91.0 W/m2 CLR
18:41 20.6 °C 11.7 °C 1022.9 hPa NNE 8.0 km/h 8.0 km/h 57 % 0.0 mm 76.0 W/m2 FEW
18:46 20.0 °C 11.5 °C 1022.6 hPa NNE 7.4 km/h 7.4 km/h 58 % 0.0 mm 60.0 W/m2 SCT
18:51 20.0 °C 11.5 °C 1022.6 hPa North 7.4 km/h 7.4 km/h 58 % 0.0 mm 51.0 W/m2 SCT
18:56 20.0 °C 11.5 °C 1022.9 hPa Calm     58 % 0.0 mm 40.0 W/m2 BKN
19:01 19.4 °C 10.9 °C 1022.9 hPa Calm     58 % 0.0 mm 30.0 W/m2 BKN
19:06 19.4 °C 11.2 °C 1022.9 hPa NNE 7.4 km/h 7.4 km/h 59 % 0.0 mm 23.0 W/m2 BKN
19:11 18.9 °C 10.9 °C 1022.9 hPa Calm     60 % 0.0 mm 18.0 W/m2 BKN
19:16 18.9 °C 10.9 °C 1022.9 hPa NE 3.7 km/h 3.7 km/h 60 % 0.0 mm 14.0 W/m2 BKN
19:21 18.9 °C 10.9 °C 1022.9 hPa NE 7.4 km/h 7.4 km/h 60 % 0.0 mm 11.0 W/m2 BKN
19:26 18.3 °C 10.7 °C 1022.9 hPa NNE 6.4 km/h 6.4 km/h 61 % 0.0 mm 7.0 W/m2 BKN
19:31 17.8 °C 10.2 °C 1022.9 hPa ENE 12.9 km/h 12.9 km/h 61 % 0.0 mm 5.0 W/m2 OVC
19:36 17.8 °C 9.9 °C 1022.9 hPa East 22.2 km/h 22.2 km/h 60 % 0.0 mm 0.0 W/m2 OVC
19:41 18.3 °C 10.4 °C 1022.9 hPa SE 20.4 km/h 20.4 km/h 60 % 0.0 mm 0.0 W/m2 OVC
19:46 18.9 °C 10.9 °C 1022.9 hPa ESE 22.5 km/h 22.5 km/h 60 % 0.0 mm 0.0 W/m2 CLR
19:51 18.9 °C 11.2 °C 1022.9 hPa SE 18.5 km/h 18.5 km/h 61 % 0.0 mm 0.0 W/m2 CLR
19:56 18.9 °C 11.2 °C 1022.9 hPa SSE 22.2 km/h 22.2 km/h 61 % 0.0 mm 0.0 W/m2 CLR
20:01 18.9 °C 11.4 °C 1023.2 hPa South 18.5 km/h 18.5 km/h 62 % 0.0 mm 0.0 W/m2 CLR
20:06 18.9 °C 11.4 °C 1023.2 hPa South 14.8 km/h 14.8 km/h 62 % 0.0 mm 0.0 W/m2 CLR
20:11 18.3 °C 11.2 °C 1023.2 hPa SE 7.4 km/h 7.4 km/h 63 % 0.0 mm 0.0 W/m2 CLR
20:16 18.3 °C 11.2 °C 1023.2 hPa SE 4.8 km/h 4.8 km/h 63 % 0.0 mm 0.0 W/m2 CLR
20:21 17.8 °C 10.9 °C 1023.2 hPa SE 13.0 km/h 13.0 km/h 64 % 0.0 mm 0.0 W/m2 CLR
20:26 17.8 °C 10.9 °C 1023.2 hPa SSE 11.1 km/h 11.1 km/h 64 % 0.0 mm 0.0 W/m2 CLR
20:31 17.2 °C 10.3 °C 1023.2 hPa SSE 1.9 km/h 1.9 km/h 64 % 0.0 mm 0.0 W/m2 CLR
20:37 16.7 °C 10.1 °C 1023.2 hPa SSE 6.4 km/h 6.4 km/h 65 % 0.0 mm 0.0 W/m2 CLR
20:42 16.1 °C 9.5 °C 1023.6 hPa SSE 5.6 km/h 5.6 km/h 65 % 0.0 mm 0.0 W/m2 CLR
20:47 15.6 °C 9.2 °C 1023.6 hPa Calm     66 % 0.0 mm 0.0 W/m2 CLR
20:52 15.0 °C 8.7 °C 1023.6 hPa Calm   0.5 km/h 66 % 0.0 mm 0.0 W/m2 CLR
20:57 14.4 °C 8.2 °C 1023.6 hPa SSE 7.4 km/h   66 % 0.0 mm 0.0 W/m2 CLR
21:02 14.4 °C 8.4 °C 1023.6 hPa Calm     67 % 0.0 mm 0.0 W/m2 CLR
21:07 13.9 °C 7.8 °C 1023.6 hPa Calm     67 % 0.0 mm 0.0 W/m2 CLR
21:12 13.3 °C 7.3 °C 1023.6 hPa Calm     67 % 0.0 mm 0.0 W/m2 CLR
21:17 13.3 °C 7.6 °C 1023.6 hPa Calm     68 % 0.0 mm 0.0 W/m2 CLR
21:22 13.3 °C 7.3 °C 1023.6 hPa Calm     67 % 0.0 mm 0.0 W/m2 CLR
21:27 12.8 °C 6.8 °C 1023.6 hPa Calm     67 % 0.0 mm 0.0 W/m2 CLR
21:32 12.8 °C 7.2 °C 1023.6 hPa Calm     69 % 0.0 mm 0.0 W/m2 CLR
21:37 12.8 °C 7.2 °C 1023.6 hPa Calm     69 % 0.0 mm 0.0 W/m2 CLR
21:42 12.8 °C 7.4 °C 1023.6 hPa Calm     70 % 0.0 mm 0.0 W/m2 CLR
21:47 12.8 °C 7.4 °C 1023.6 hPa Calm     70 % 0.0 mm 0.0 W/m2 CLR
21:52 12.8 °C 7.7 °C 1023.6 hPa Calm     71 % 0.0 mm 0.0 W/m2 CLR
21:57 12.8 °C 7.8 °C 1023.9 hPa Calm     72 % 0.0 mm 0.0 W/m2 CLR
22:02 12.8 °C 7.8 °C 1023.9 hPa Calm     72 % 0.0 mm 0.0 W/m2 CLR
22:07 12.2 °C 7.5 °C 1023.9 hPa Calm     73 % 0.0 mm 0.0 W/m2 CLR
22:12 12.2 °C 7.3 °C 1023.9 hPa Calm     72 % 0.0 mm 0.0 W/m2 CLR
22:17 12.2 °C 7.5 °C 1023.9 hPa Calm     73 % 0.0 mm 0.0 W/m2 CLR
22:22 11.7 °C 7.0 °C 1023.9 hPa Calm     73 % 0.0 mm 0.0 W/m2 CLR
22:27 11.7 °C 7.2 °C 1023.9 hPa Calm     74 % 0.0 mm 0.0 W/m2 CLR
22:32 11.7 °C 7.2 °C 1023.9 hPa Calm     74 % 0.0 mm 0.0 W/m2 CLR
22:37 11.7 °C 7.4 °C 1023.9 hPa Calm     75 % 0.0 mm 0.0 W/m2 CLR
22:42 11.7 °C 7.6 °C 1023.9 hPa Calm     76 % 0.0 mm 0.0 W/m2 CLR
22:47 11.7 °C 7.8 °C 1023.9 hPa Calm     77 % 0.0 mm 0.0 W/m2 CLR
22:52 11.7 °C 7.8 °C 1024.3 hPa Calm     77 % 0.0 mm 0.0 W/m2 CLR
22:57 11.7 °C 7.8 °C 1024.3 hPa Calm     77 % 0.0 mm 0.0 W/m2 CLR
23:02 11.7 °C 7.8 °C 1024.3 hPa Calm     77 % 0.0 mm 0.0 W/m2 CLR
23:07 11.1 °C 7.2 °C 1024.3 hPa Calm     77 % 0.0 mm 0.0 W/m2 CLR
23:12 11.1 °C 7.2 °C 1024.3 hPa Calm     77 % 0.0 mm 0.0 W/m2 CLR
23:17 11.1 °C 7.4 °C 1024.3 hPa Calm     78 % 0.0 mm 0.0 W/m2 CLR
23:22 11.1 °C 7.6 °C 1024.3 hPa Calm     79 % 0.0 mm 0.0 W/m2 CLR
23:27 11.1 °C 7.9 °C 1024.3 hPa Calm     81 % 0.0 mm 0.0 W/m2 CLR
23:32 11.1 °C 7.9 °C 1024.3 hPa Calm     81 % 0.0 mm 0.0 W/m2 CLR
23:37 10.6 °C 7.2 °C 1024.3 hPa Calm     80 % 0.0 mm 0.0 W/m2 CLR
23:42 10.6 °C 7.2 °C 1024.3 hPa Calm     80 % 0.0 mm 0.0 W/m2 CLR
23:47 10.6 °C 7.1 °C 1024.3 hPa Calm     79 % 0.0 mm 0.0 W/m2 CLR
23:52 10.0 °C 6.7 °C 1024.6 hPa Calm     80 % 0.0 mm 0.0 W/m2 CLR
23:57 10.0 °C 6.7 °C 1024.6 hPa Calm     80 % 0.0 mm 0.0 W/m2 CLR
Lo Temps de Massalio
Compliments of Weather Underground - 1.25 mb